KERI

Erie International / Tom Ridge Field Airport

Erie, Pennsylvania, USA
METAR KERI 211351Z 35005KT 10SM CLR 15/11 A3025 RMK AO2 SLP245 T01500106
Observed Flight Rules
May-21 @ 13:51 UTC (55 minutes ago) Visual Flight Rules
Wind Visibility Clouds
350° at 5 knots 10 miles
  • Clear skies
Temperatures Readings
Current 15°C / 59°F
Dewpoint 11°C / 52°F
Humidity 77%
Altimeter 30.25" Hg
Pressure 1024.5 hPa
Elevation 222
METAR KERI 211351Z 35005KT 10SM CLR 15/11 A3025 RMK AO2 SLP245 T01500106
Observed Flight Rules
May-21 @ 13:51 UTC
(55 minutes ago)
VFR
Wind Visibility
350° at 5 knots 10 miles
Clouds
  • Clear skies
Temperature Dewpoint
15°C / 59°F 11°C / 52°F
Humidity Altimeter Pressure
77% 30.25" Hg 1024.5 hPa